Share

New Delhi, India

Indira Gandhi International (VIDP) Elev 764 ft | 28.57 °N, 77.12 °E | Change Station

Current weather conditions updated 36 minutes ago

Haze
Haze
91 °F
Feels Like 91 °F
N
9
Wind Variable Wind from NNW
Sunrise 5:51 AM
Sunset 6:50 PM
Moon Waning Gibbous

Today is forecast to be nearly the same temperature as yesterday.

Pressure 29.95 in
Visibility 1.6 miles
Clouds Few 4000 ft
Scattered Clouds 10000 ft
Dew Point 46 °F
Humidity 21%
Rainfall 0.00 in
Snow Depth Not available.
UV 12 out of 16
Pollen Not available.
Air Quality Not available.
Flu Activity Not available.
METAR VIDP 200600Z 34008KT 2500 HZ FEW040 SCT100 33/08 Q1014 NOSIG

More Conditions Fewer Conditions

Pressure 29.95 in
Visibility 1.6 miles
Clouds Few 4000 ft
Scattered Clouds 10000 ft
Dew Point 46 °F
Humidity 21%
Rainfall 0.00 in
Snow Depth Not available.
UV 12 out of 16
Pollen Not available.
Air Quality Not available.
Flu Activity Not available.
METAR VIDP 200600Z 34008KT 2500 HZ FEW040 SCT100 33/08 Q1014 NOSIG

More Conditions Fewer Conditions

10-Day Weather Forecast

Almanac

Astronomy

Apr. 20, 2014 Rise Set
Actual Time 5:51 AM IST 6:50 PM IST
Civil Twilight 5:27 AM IST 7:14 PM IST
Nautical Twilight 4:58 AM IST 7:43 PM IST
Astronomical Twilight 4:28 AM IST 8:12 PM IST
Moon 11:49 PM IST 9:52 AM IST
Length of Visible Light 13h 47m
Length of Day
12h 58m
Tomorrow will be 1m 35s longer.
Waning Gibbous, 73% of the Moon is Illuminated
Today
Waning Gibbous
Apr 22
Last Quarter
Apr 29
New
May 6
First Quarter
May 14
Full

Yesterday's Extremes

Country Highs Country Lows

Community

  • Sunny day at the coast-Cape Arago Lighthouse
    Sunny day at the coast-Cape Arago Lighthouse
  • Cherry Blossoms
    Cherry Blossoms
  • White-Crowned Sparrow
    White-Crowned Sparrow
  • New Day
    New Day
  • Happy Easter!
    Happy Easter!

WunderPhotos

Upload Photos

1,703,085 photos uploaded!

WunderBlogs® & News

Nearby

Snow Depth

Not available.

Coastal Water Temperatures

Place Temperature
No Stations Reporting

Earthquake Activity

City Distance Mag. Time & Date
No recent earthquake activity has been reported nearby.
Minimum magnitude displayed is 2.5.

Nearby Weather Stations

Station Location Temp. Heat Index Dew Point Humidity Wind Precip. Elev Updated Type
New Delhi - GK2, New Delhi 88.2 °F 87 °F 58 °F 36% SSW  at  2.0 mph 0.00 in / hr 810 ft 12:06 PM IST Rapid Fire

Show More Stations Show Fewer Stations

What do you think?

We're not finished. Please let us know what you like, what you don't like, and what you are still missing.